createdAt,value
2022-09-16T00:01:44.798Z,11.69
2022-09-16T00:04:12.536Z,11.69
2022-09-16T00:06:40.228Z,11.71
2022-09-16T00:09:09.751Z,11.74
2022-09-16T00:11:37.848Z,11.71
2022-09-16T00:14:05.854Z,11.70
2022-09-16T00:16:34.104Z,11.74
2022-09-16T00:19:03.277Z,11.71
2022-09-16T00:21:32.040Z,11.70
2022-09-16T00:23:59.930Z,11.71
2022-09-16T00:26:27.780Z,11.71
2022-09-16T00:28:56.633Z,11.76
2022-09-16T00:31:24.483Z,11.74
2022-09-16T00:33:52.345Z,11.74
2022-09-16T00:36:20.573Z,11.77
2022-09-16T00:38:52.873Z,11.80
2022-09-16T00:41:24.700Z,11.80
2022-09-16T00:44:05.885Z,11.77
2022-09-16T00:46:47.955Z,11.76
2022-09-16T00:49:25.427Z,11.74
2022-09-16T00:51:57.344Z,11.77
2022-09-16T00:54:25.917Z,11.74
2022-09-16T00:56:55.856Z,11.71
2022-09-16T00:59:32.893Z,11.71
2022-09-16T01:02:06.817Z,11.69
2022-09-16T01:05:01.769Z,11.70
2022-09-16T01:07:46.156Z,11.64
2022-09-16T01:10:17.635Z,11.67
2022-09-16T01:12:47.261Z,11.64
2022-09-16T01:15:17.786Z,11.64
2022-09-16T01:18:01.372Z,11.59
2022-09-16T01:20:59.863Z,11.57
2022-09-16T01:23:55.279Z,11.53
2022-09-16T01:26:29.289Z,11.52
2022-09-16T01:29:30.454Z,11.43
2022-09-16T01:32:07.877Z,11.36
2022-09-16T01:35:09.204Z,11.32
2022-09-16T01:37:51.972Z,11.28
2022-09-16T01:40:35.225Z,11.28
2022-09-16T01:43:19.813Z,11.26
2022-09-16T01:46:06.571Z,11.25
2022-09-16T01:48:39.885Z,11.22
2022-09-16T01:51:29.859Z,11.19
2022-09-16T01:54:28.370Z,11.22
2022-09-16T01:57:07.503Z,11.28
2022-09-16T01:59:39.014Z,11.29
2022-09-16T02:02:13.614Z,11.36
2022-09-16T02:04:47.805Z,11.40
2022-09-16T02:07:20.637Z,11.38
2022-09-16T02:10:15.053Z,11.40
2022-09-16T02:12:46.156Z,11.40
2022-09-16T02:15:22.295Z,11.43
2022-09-16T02:17:59.605Z,11.44
2022-09-16T02:20:30.552Z,11.44
2022-09-16T02:23:23.300Z,11.43
2022-09-16T02:25:52.382Z,11.43
2022-09-16T02:28:26.531Z,11.46
2022-09-16T02:30:58.310Z,11.44
2022-09-16T02:33:33.564Z,11.47
2022-09-16T02:36:04.183Z,11.52
2022-09-16T02:38:40.090Z,11.53
2022-09-16T02:41:14.438Z,11.59
2022-09-16T02:43:43.470Z,11.57
2022-09-16T02:46:48.012Z,11.55
2022-09-16T02:49:26.235Z,11.60
2022-09-16T02:52:12.948Z,11.60
2022-09-16T02:54:46.446Z,11.62
2022-09-16T02:57:15.230Z,11.56
2022-09-16T02:59:43.057Z,11.59
2022-09-16T03:02:11.136Z,11.57
2022-09-16T03:04:39.027Z,11.56
2022-09-16T03:07:10.171Z,11.53
2022-09-16T03:09:41.756Z,11.53
2022-09-16T03:12:49.529Z,11.50
2022-09-16T03:15:32.072Z,11.44
2022-09-16T03:18:11.701Z,11.42
2022-09-16T03:20:51.296Z,11.40
2022-09-16T03:23:52.097Z,11.35
2022-09-16T03:26:46.169Z,11.39
2022-09-16T03:29:25.103Z,11.38
2022-09-16T03:32:17.651Z,11.35
2022-09-16T03:34:51.118Z,11.35
2022-09-16T03:37:21.192Z,11.39
2022-09-16T03:39:53.355Z,11.38
2022-09-16T03:42:21.850Z,11.39
2022-09-16T03:44:50.289Z,11.39
2022-09-16T03:47:18.500Z,11.39
2022-09-16T03:49:46.306Z,11.39
2022-09-16T03:52:14.090Z,11.40
2022-09-16T03:54:41.865Z,11.38
2022-09-16T03:57:11.741Z,11.38
2022-09-16T03:59:39.483Z,11.33
2022-09-16T04:02:07.439Z,11.35
2022-09-16T04:04:35.180Z,11.38
2022-09-16T04:07:03.042Z,11.33
2022-09-16T04:09:30.775Z,11.30
2022-09-16T04:11:58.850Z,11.26
2022-09-16T04:14:26.615Z,11.22
2022-09-16T04:16:55.503Z,11.18
2022-09-16T04:19:23.273Z,11.15
2022-09-16T04:21:51.134Z,11.10
2022-09-16T04:24:19.059Z,11.07
2022-09-16T04:26:46.914Z,11.02
2022-09-16T04:29:14.843Z,10.98
2022-09-16T04:31:43.194Z,10.95
2022-09-16T04:34:13.668Z,10.93
2022-09-16T04:36:41.486Z,10.91
2022-09-16T04:39:09.273Z,10.85
2022-09-16T04:41:37.115Z,10.81
2022-09-16T04:44:05.025Z,10.83
2022-09-16T04:46:33.361Z,10.80
2022-09-16T04:49:01.659Z,10.73
2022-09-16T04:51:29.820Z,10.73
2022-09-16T04:53:58.058Z,10.67
2022-09-16T04:56:30.163Z,10.71
2022-09-16T04:59:01.325Z,10.71
2022-09-16T05:01:31.981Z,10.67
2022-09-16T05:04:03.044Z,10.66
2022-09-16T05:06:34.619Z,10.68
2022-09-16T05:09:03.851Z,10.68
2022-09-16T05:11:34.041Z,10.67
2022-09-16T05:14:03.605Z,10.68
2022-09-16T05:16:32.752Z,10.68
2022-09-16T05:19:04.676Z,10.67
2022-09-16T05:21:35.583Z,10.61
2022-09-16T05:24:05.834Z,10.56
2022-09-16T05:26:35.391Z,10.46
2022-09-16T05:29:05.958Z,10.42
2022-09-16T05:31:36.425Z,10.40
2022-09-16T05:34:06.953Z,10.43
2022-09-16T05:36:39.984Z,10.40
2022-09-16T05:39:24.792Z,10.45
2022-09-16T05:41:57.507Z,10.46
2022-09-16T05:44:26.267Z,10.46
2022-09-16T05:46:54.661Z,10.52
2022-09-16T05:49:23.715Z,10.60
2022-09-16T05:51:52.388Z,11.33
2022-09-16T05:54:20.966Z,12.05
2022-09-16T05:56:48.679Z,12.53
2022-09-16T05:59:17.555Z,13.00
2022-09-16T06:01:45.510Z,13.43
2022-09-16T06:04:15.173Z,13.71
2022-09-16T06:06:46.949Z,13.39
2022-09-16T06:09:16.480Z,12.90
2022-09-16T06:11:46.470Z,12.22
2022-09-16T06:14:15.710Z,11.84
2022-09-16T06:16:43.765Z,11.60
2022-09-16T06:19:15.073Z,11.46
2022-09-16T06:21:43.896Z,11.33
2022-09-16T06:24:13.933Z,11.28
2022-09-16T06:26:44.180Z,11.38
2022-09-16T06:29:12.725Z,12.73
2022-09-16T06:31:41.015Z,13.87
2022-09-16T06:34:13.760Z,14.73
2022-09-16T06:36:45.085Z,15.38
2022-09-16T06:39:14.833Z,15.79
2022-09-16T06:41:42.909Z,15.97
2022-09-16T06:44:11.141Z,16.45
2022-09-16T06:46:39.287Z,16.36
2022-09-16T06:49:07.340Z,16.51
2022-09-16T06:51:35.803Z,16.65
2022-09-16T06:54:06.265Z,16.67
2022-09-16T06:56:37.523Z,16.95
2022-09-16T06:59:05.744Z,17.07
2022-09-16T07:01:34.343Z,17.11
2022-09-16T07:04:08.212Z,17.32
2022-09-16T07:07:08.581Z,17.18
2022-09-16T07:09:24.574Z,17.62
2022-09-16T07:11:52.279Z,17.77
2022-09-16T07:14:20.095Z,18.17
2022-09-16T07:16:48.133Z,17.97
2022-09-16T07:19:16.061Z,18.48
2022-09-16T07:21:44.419Z,17.62
2022-09-16T07:24:14.390Z,17.46
2022-09-16T07:26:43.222Z,17.82
2022-09-16T07:29:13.852Z,16.66
2022-09-16T07:31:42.124Z,15.55
2022-09-16T07:34:12.255Z,16.04
2022-09-16T07:36:45.012Z,17.01
2022-09-16T07:39:14.544Z,17.83
2022-09-16T07:41:44.024Z,17.86
2022-09-16T07:44:17.431Z,17.91
2022-09-16T07:46:45.346Z,18.18
2022-09-16T07:49:14.950Z,18.41
2022-09-16T07:51:43.476Z,18.24
2022-09-16T07:54:14.314Z,18.70
2022-09-16T07:56:43.657Z,18.69
2022-09-16T07:59:18.552Z,18.62
2022-09-16T08:01:48.639Z,18.66
2022-09-16T08:04:17.800Z,18.74
2022-09-16T08:06:45.691Z,18.62
2022-09-16T08:09:37.131Z,18.63
2022-09-16T08:12:04.925Z,17.94
2022-09-16T08:14:33.248Z,17.80
2022-09-16T08:17:01.892Z,17.07
2022-09-16T08:19:29.795Z,16.76
2022-09-16T08:21:57.551Z,16.60
2022-09-16T08:24:25.476Z,16.80
2022-09-16T08:26:53.709Z,17.03
2022-09-16T08:29:22.492Z,17.29
2022-09-16T08:31:50.451Z,17.25
2022-09-16T08:34:18.565Z,17.28
2022-09-16T08:36:46.966Z,17.18
2022-09-16T08:39:15.137Z,17.06
2022-09-16T08:42:07.469Z,17.19
2022-09-16T08:45:06.215Z,17.17
2022-09-16T08:47:46.491Z,16.99
2022-09-16T08:50:19.333Z,16.80
2022-09-16T08:52:48.063Z,16.76
2022-09-16T08:55:40.355Z,16.81
2022-09-16T08:58:31.477Z,16.74
2022-09-16T09:01:03.694Z,16.72
2022-09-16T09:03:43.554Z,17.04
2022-09-16T09:06:32.314Z,16.95
2022-09-16T09:09:37.548Z,17.01
2022-09-16T09:12:15.721Z,17.15
2022-09-16T09:15:07.635Z,17.28
2022-09-16T09:17:48.579Z,17.27
2022-09-16T09:20:21.154Z,17.28
2022-09-16T09:23:04.078Z,17.31
2022-09-16T09:25:55.089Z,16.93
2022-09-16T09:28:54.875Z,16.97
2022-09-16T09:31:44.662Z,17.15
2022-09-16T09:34:15.527Z,16.73
2022-09-16T09:37:07.955Z,16.41
2022-09-16T09:39:57.412Z,16.83
2022-09-16T09:42:43.226Z,17.06
2022-09-16T09:45:41.330Z,17.08
2022-09-16T09:48:31.481Z,17.12
2022-09-16T09:51:05.693Z,17.40
2022-09-16T09:53:43.223Z,17.55
2022-09-16T09:56:20.960Z,17.43
2022-09-16T09:58:59.877Z,16.97
2022-09-16T10:01:27.748Z,15.27
2022-09-16T10:03:57.630Z,14.18
2022-09-16T10:06:33.333Z,13.80
2022-09-16T10:09:01.323Z,13.66
2022-09-16T10:11:31.467Z,13.52
2022-09-16T10:14:01.262Z,13.47
2022-09-16T10:16:37.171Z,13.43
2022-09-16T10:19:16.296Z,13.25
2022-09-16T10:22:08.185Z,13.29
2022-09-16T10:24:41.958Z,13.73
2022-09-16T10:27:39.439Z,14.25
2022-09-16T10:30:19.024Z,14.87
2022-09-16T10:32:54.149Z,15.46
2022-09-16T10:35:33.440Z,15.79
2022-09-16T10:38:08.886Z,16.12
2022-09-16T10:40:37.602Z,16.57
2022-09-16T10:43:14.324Z,16.91
2022-09-16T10:45:51.589Z,17.15
2022-09-16T10:48:30.876Z,17.31
2022-09-16T10:51:03.890Z,17.10
2022-09-16T10:53:45.366Z,17.17
2022-09-16T10:56:22.773Z,16.91
2022-09-16T10:59:01.671Z,16.79
2022-09-16T11:02:08.997Z,16.81
2022-09-16T11:04:58.700Z,17.14
2022-09-16T11:07:58.665Z,17.17
2022-09-16T11:10:52.152Z,17.04
2022-09-16T11:13:40.847Z,16.79
2022-09-16T11:16:27.407Z,16.62
2022-09-16T11:19:17.760Z,16.59
2022-09-16T11:22:18.711Z,16.57
2022-09-16T11:25:01.373Z,16.46
2022-09-16T11:27:55.629Z,16.56
2022-09-16T11:30:24.012Z,16.73
2022-09-16T11:36:01.919Z,16.76
2022-09-16T11:38:43.998Z,16.73
2022-09-16T11:41:45.768Z,16.87
2022-09-16T11:44:24.494Z,16.87
2022-09-16T11:47:04.633Z,16.94
2022-09-16T11:50:12.431Z,16.77
2022-09-16T11:53:11.554Z,16.79
2022-09-16T11:56:04.403Z,16.91
2022-09-16T11:58:49.089Z,17.03
2022-09-16T12:01:22.843Z,17.15
2022-09-16T12:04:18.316Z,17.24
2022-09-16T12:06:56.154Z,17.21
2022-09-16T12:09:39.699Z,17.18
2022-09-16T12:12:21.261Z,17.43
2022-09-16T12:15:03.175Z,17.77
2022-09-16T12:17:39.517Z,17.90
2022-09-16T12:20:18.469Z,17.84
2022-09-16T12:22:55.982Z,17.70
2022-09-16T12:25:38.189Z,17.52
2022-09-16T12:28:23.481Z,17.22
2022-09-16T12:31:08.687Z,16.73
2022-09-16T12:33:43.630Z,16.00
2022-09-16T12:36:24.719Z,15.57
2022-09-16T12:38:53.038Z,15.39
2022-09-16T12:41:39.621Z,15.31
2022-09-16T12:44:47.359Z,15.38
2022-09-16T12:47:42.043Z,15.63
2022-09-16T12:50:37.465Z,16.02
2022-09-16T12:53:14.459Z,16.51
2022-09-16T12:56:00.189Z,16.80
2022-09-16T12:58:34.026Z,16.51
2022-09-16T13:01:17.234Z,16.04
2022-09-16T13:03:50.922Z,16.00
2022-09-16T13:06:32.389Z,16.24
2022-09-16T13:09:15.725Z,16.44
2022-09-16T13:12:31.726Z,16.80
2022-09-16T13:14:53.450Z,16.62
2022-09-16T13:17:48.638Z,16.19
2022-09-16T13:20:18.260Z,15.98
2022-09-16T13:23:00.712Z,15.86
2022-09-16T13:25:33.248Z,15.73
2022-09-16T13:28:26.461Z,15.63
2022-09-16T13:30:54.764Z,15.45
2022-09-16T13:33:28.205Z,15.35
2022-09-16T13:36:20.222Z,15.35
2022-09-16T13:38:49.895Z,15.38
2022-09-16T13:41:36.044Z,15.32
2022-09-16T13:44:39.725Z,15.36
2022-09-16T13:47:16.459Z,15.60
2022-09-16T13:49:51.584Z,15.73
2022-09-16T13:52:29.667Z,15.82
2022-09-16T13:55:11.432Z,15.96
2022-09-16T13:57:55.173Z,16.02
2022-09-16T14:00:24.686Z,16.14
2022-09-16T14:03:21.359Z,16.10
2022-09-16T14:05:51.898Z,15.97
2022-09-16T14:08:28.475Z,14.80
2022-09-16T14:11:17.408Z,14.11
2022-09-16T14:14:05.046Z,13.91
2022-09-16T14:16:35.940Z,13.77
2022-09-16T14:19:07.941Z,13.69
2022-09-16T14:21:35.954Z,13.57
2022-09-16T14:24:18.209Z,13.62
2022-09-16T14:26:57.135Z,13.71
2022-09-16T14:29:27.217Z,13.88
2022-09-16T14:31:57.167Z,14.00
2022-09-16T14:34:33.809Z,14.14
2022-09-16T14:37:02.697Z,14.28
2022-09-16T14:39:32.018Z,14.40
2022-09-16T14:42:05.316Z,14.49
2022-09-16T14:44:48.763Z,14.59
2022-09-16T14:47:39.671Z,14.62
2022-09-16T14:50:26.243Z,14.70
2022-09-16T14:53:01.622Z,14.81
2022-09-16T14:55:33.040Z,14.84
2022-09-16T14:58:01.603Z,14.83
2022-09-16T15:00:42.368Z,14.84
2022-09-16T15:03:24.774Z,14.81
2022-09-16T15:05:54.191Z,14.70
2022-09-16T15:08:28.127Z,14.70
2022-09-16T15:11:00.877Z,14.57
2022-09-16T15:13:37.299Z,14.59
2022-09-16T15:16:12.653Z,14.66
2022-09-16T15:19:03.107Z,14.79
2022-09-16T15:21:34.274Z,14.77
2022-09-16T15:24:04.171Z,14.90
2022-09-16T15:26:44.168Z,15.02
2022-09-16T15:29:18.143Z,15.11
2022-09-16T15:31:47.133Z,15.19
2022-09-16T15:34:23.803Z,15.22
2022-09-16T15:36:59.816Z,15.17
2022-09-16T15:39:34.837Z,14.85
2022-09-16T15:42:12.906Z,14.65
2022-09-16T15:44:51.821Z,14.43
2022-09-16T15:47:28.892Z,14.30
2022-09-16T15:50:03.956Z,14.18
2022-09-16T15:52:56.284Z,14.14
2022-09-16T15:55:49.681Z,14.08
2022-09-16T15:58:39.770Z,14.12
2022-09-16T16:01:43.438Z,14.19
2022-09-16T16:04:13.421Z,14.32
2022-09-16T16:06:52.176Z,14.36
2022-09-16T16:09:43.174Z,14.38
2022-09-16T16:12:18.737Z,14.33
2022-09-16T16:14:46.911Z,14.33
2022-09-16T16:17:20.592Z,14.40
2022-09-16T16:19:50.464Z,14.47
2022-09-16T16:22:19.226Z,14.53
2022-09-16T16:24:47.387Z,14.63
2022-09-16T16:27:15.658Z,14.70
2022-09-16T16:29:43.417Z,14.77
2022-09-16T16:32:13.730Z,14.79
2022-09-16T16:34:47.270Z,14.81
2022-09-16T16:37:40.277Z,14.93
2022-09-16T16:40:06.360Z,15.07
2022-09-16T16:42:35.720Z,15.15
2022-09-16T16:45:04.040Z,15.24
2022-09-16T16:47:31.860Z,15.28
2022-09-16T16:50:00.709Z,15.19
2022-09-16T16:52:28.659Z,15.15
2022-09-16T16:54:56.434Z,15.14
2022-09-16T16:57:24.259Z,15.11
2022-09-16T16:59:52.247Z,15.00
2022-09-16T17:02:20.173Z,15.04
2022-09-16T17:04:48.000Z,14.97
2022-09-16T17:07:31.169Z,14.95
2022-09-16T17:10:00.640Z,14.94
2022-09-16T17:12:28.506Z,15.02
2022-09-16T17:14:56.358Z,14.95
2022-09-16T17:17:27.759Z,14.49
2022-09-16T17:19:58.659Z,14.14
2022-09-16T17:22:26.470Z,13.93
2022-09-16T17:24:54.277Z,13.88
2022-09-16T17:27:24.609Z,13.87
2022-09-16T17:29:52.465Z,13.85
2022-09-16T17:32:20.538Z,13.71
2022-09-16T17:34:48.506Z,13.56
2022-09-16T17:37:19.619Z,13.50
2022-09-16T17:39:48.573Z,13.50
2022-09-16T17:42:16.478Z,13.32
2022-09-16T17:44:44.478Z,13.18
2022-09-16T17:47:12.301Z,13.11
2022-09-16T17:49:40.082Z,13.04
2022-09-16T17:52:08.132Z,13.02
2022-09-16T17:54:36.451Z,13.02
2022-09-16T17:57:04.396Z,12.98
2022-09-16T17:59:32.498Z,12.95
2022-09-16T18:02:00.294Z,12.95
2022-09-16T18:04:28.350Z,12.94
2022-09-16T18:06:56.539Z,12.94
2022-09-16T18:09:24.404Z,12.93
2022-09-16T18:11:52.439Z,12.91
2022-09-16T18:14:23.467Z,12.93
2022-09-16T18:16:51.911Z,12.93
2022-09-16T18:19:20.172Z,13.00
2022-09-16T18:21:48.179Z,13.02
2022-09-16T18:24:16.170Z,13.11
2022-09-16T18:26:44.146Z,13.00
2022-09-16T18:29:13.616Z,12.80
2022-09-16T18:31:44.694Z,12.49
2022-09-16T18:34:14.208Z,12.28
2022-09-16T18:36:42.389Z,12.21
2022-09-16T18:39:15.402Z,12.11
2022-09-16T18:41:45.532Z,12.11
2022-09-16T18:44:19.946Z,12.10
2022-09-16T18:46:48.025Z,12.10
2022-09-16T18:49:22.142Z,12.11
2022-09-16T18:51:52.494Z,12.11
2022-09-16T18:54:28.933Z,12.11
2022-09-16T18:56:59.152Z,12.14
2022-09-16T18:59:32.182Z,12.12
2022-09-16T19:02:03.869Z,12.12
2022-09-16T19:04:33.455Z,12.11
2022-09-16T19:07:08.115Z,12.14
2022-09-16T19:09:38.368Z,12.14
2022-09-16T19:12:09.371Z,12.18
2022-09-16T19:14:37.483Z,12.15
2022-09-16T19:17:05.729Z,12.10
2022-09-16T19:19:34.777Z,11.98
2022-09-16T19:22:05.777Z,11.93
2022-09-16T19:24:34.389Z,11.81
2022-09-16T19:27:02.884Z,11.77
2022-09-16T19:29:32.530Z,11.71
2022-09-16T19:32:00.813Z,11.66
2022-09-16T19:34:28.932Z,11.64
2022-09-16T19:36:57.087Z,11.59
2022-09-16T19:39:26.949Z,11.62
2022-09-16T19:41:54.931Z,11.60
2022-09-16T19:44:23.166Z,11.64
2022-09-16T19:46:51.034Z,11.62
2022-09-16T19:49:20.852Z,11.60
2022-09-16T19:51:49.546Z,11.60
2022-09-16T19:54:18.354Z,11.62
2022-09-16T19:56:50.440Z,11.59
2022-09-16T19:59:19.497Z,11.59
2022-09-16T20:01:47.985Z,11.55
2022-09-16T20:04:19.711Z,11.50
2022-09-16T20:06:48.205Z,11.43
2022-09-16T20:09:17.116Z,11.36
2022-09-16T20:11:47.116Z,11.33
2022-09-16T20:14:20.417Z,11.28
2022-09-16T20:16:50.348Z,11.29
2022-09-16T20:19:19.856Z,11.29
2022-09-16T20:21:47.897Z,11.22
2022-09-16T20:24:18.856Z,11.22
2022-09-16T20:26:50.921Z,11.22
2022-09-16T20:29:19.807Z,11.22
2022-09-16T20:31:49.337Z,11.22
2022-09-16T20:34:17.530Z,11.25
2022-09-16T20:36:46.426Z,11.25
2022-09-16T20:39:14.839Z,11.21
2022-09-16T20:41:45.719Z,11.19
2022-09-16T20:44:15.193Z,11.18
2022-09-16T20:46:43.415Z,11.14
2022-09-16T20:49:16.497Z,11.14
2022-09-16T20:51:45.344Z,11.16
2022-09-16T20:54:15.233Z,11.22
2022-09-16T20:56:45.880Z,11.22
2022-09-16T20:59:16.099Z,11.21
2022-09-16T21:01:44.321Z,11.23
2022-09-16T21:04:15.134Z,11.23
2022-09-16T21:06:43.600Z,11.25
2022-09-16T21:09:13.741Z,11.26
2022-09-16T21:11:44.603Z,11.25
2022-09-16T21:14:15.141Z,11.26
2022-09-16T21:16:44.646Z,11.32
2022-09-16T21:19:13.308Z,11.33
2022-09-16T21:21:44.298Z,11.30
2022-09-16T21:24:13.081Z,11.35
2022-09-16T21:26:42.278Z,11.35
2022-09-16T21:29:18.799Z,11.36
2022-09-16T21:31:48.373Z,11.35
2022-09-16T21:34:18.981Z,11.33
2022-09-16T21:36:47.817Z,11.30
2022-09-16T21:39:16.672Z,11.30
2022-09-16T21:41:45.941Z,11.32
2022-09-16T21:44:32.234Z,11.30
2022-09-16T21:47:00.045Z,11.30
2022-09-16T21:49:30.294Z,11.35
2022-09-16T21:51:59.134Z,11.35
2022-09-16T21:54:28.550Z,11.39
2022-09-16T21:56:56.689Z,11.42
2022-09-16T21:59:24.725Z,11.40
2022-09-16T22:01:53.016Z,11.42
2022-09-16T22:04:23.205Z,11.42
2022-09-16T22:06:54.665Z,11.43
2022-09-16T22:09:22.898Z,11.36
2022-09-16T22:11:51.517Z,11.35
2022-09-16T22:14:19.615Z,11.29
2022-09-16T22:16:47.497Z,11.29
2022-09-16T22:19:17.860Z,11.29
2022-09-16T22:21:48.399Z,11.29
2022-09-16T22:24:20.101Z,11.30
2022-09-16T22:26:49.703Z,11.28
2022-09-16T22:29:17.753Z,11.32
2022-09-16T22:31:45.622Z,11.30
2022-09-16T22:34:13.436Z,11.29
2022-09-16T22:36:41.557Z,11.28
2022-09-16T22:39:14.342Z,11.25
2022-09-16T22:41:42.694Z,11.29
2022-09-16T22:44:10.613Z,11.28
2022-09-16T22:46:45.087Z,11.23
2022-09-16T22:49:14.461Z,11.21
2022-09-16T22:51:42.570Z,11.15
2022-09-16T22:54:12.252Z,11.10
2022-09-16T22:56:40.568Z,11.04
2022-09-16T22:59:11.285Z,10.95
2022-09-16T23:01:40.222Z,10.83
2022-09-16T23:04:09.698Z,10.77
2022-09-16T23:06:39.707Z,10.70
2022-09-16T23:09:09.308Z,10.63
2022-09-16T23:11:37.237Z,10.56
2022-09-16T23:14:06.373Z,10.52
2022-09-16T23:16:37.106Z,10.46
2022-09-16T23:19:10.742Z,10.45
2022-09-16T23:21:39.367Z,10.47
2022-09-16T23:24:11.798Z,10.49
2022-09-16T23:26:39.671Z,10.50
2022-09-16T23:29:09.928Z,10.52
2022-09-16T23:31:43.199Z,10.50
2022-09-16T23:34:17.758Z,10.50
2022-09-16T23:36:45.948Z,10.45
2022-09-16T23:39:15.134Z,10.45
2022-09-16T23:41:43.475Z,10.45
2022-09-16T23:44:14.138Z,10.47
2022-09-16T23:46:42.386Z,10.52
2022-09-16T23:49:10.743Z,10.56
2022-09-16T23:51:38.715Z,10.60
2022-09-16T23:54:06.584Z,10.67
2022-09-16T23:56:34.553Z,10.74
2022-09-16T23:59:02.304Z,10.81
